Tropical Cyclones
[Index]
Main Index Home Page Stock Weather Photos Extreme Storms Discussion Storm News and Storm Chasing Reports Tropical Cyclones / Hurricanes / Typhoons Weather Data and Links Wild Fires / Bushfires Weather Observation Techniques Weather Picture Catalogue Tornado Pictures and Reports Stock Video Footage and DVDs for sale
Season 2006-2007 Tropical Cyclone GEORGE Track Map
Season 2006-2007 Summaries: [BoM-AU] [JTWC-AU] [JTWC-SIO] [JTWC-SPAC] [JTWC-SH]
<<- Previous TC | BoM 2006-2007 Season | Next TC ->>

click for intensity scale information  Lat/long Grid: Show Hide

 Date Labels: Show Hide

Bureau of Meteorology Tropical Cyclone Data

Name: GEORGE
Number: 905 / 200607_11

27 Feb 2007 00:00 UTC to 12 Mar 2007 06:00 UTC

    date/time    lat    long    hPa   cat  kts
2007-02-27 00   12.1   135.2   1002                     
2007-02-27 06   12.1   134.6    998                     
2007-02-27 12   12.2   134.8   1001                     
2007-02-27 18   12.2   134.8    998                     
2007-02-28 00   12.3   134.5    999                     
2007-02-28 06   12.2   134.9    997                     
2007-02-28 12   12.3   134.9    997                     
2007-02-28 18   12.4   135.7    994    1                
2007-03-01 00   12.6   135.4    997                     
2007-03-01 06   12.9   135.5    996                     
2007-03-01 12   13.0   135.0    997                     
2007-03-01 18   13.1   134.2    995    1                
2007-03-02 00   13.1   133.8    998                     
2007-03-02 06   13.0   133.2    995    1                
2007-03-02 12   13.1   132.6    997                     
2007-03-02 18   13.2   131.4    995    1    25          
2007-03-03 00   13.4   130.7    997         25          
2007-03-03 06   13.9   130.1    996         25          
2007-03-03 12   14.1   129.4    994    1    30          
2007-03-03 18   14.5   129.2    989    1    40          
2007-03-04 00   14.6   128.5    982    2    50          
2007-03-04 06   14.4   127.9    986    1    40          
2007-03-04 12   14.4   127.3    993    1    30          
2007-03-04 18   14.3   126.4    986    1    40          
2007-03-05 00   14.5   125.5    990    1    35          
2007-03-05 06   14.5   124.9    982    2    40          
2007-03-05 12   14.5   124.1    980    2    45          
2007-03-05 18   14.5   123.2    976    2    50          
2007-03-06 00   14.5   122.4    976    2    50          
2007-03-06 06   14.5   121.6    974    2    50          
2007-03-06 12   14.6   120.9    978    2    45          
2007-03-06 18   14.9   120.2    978    2    45          
2007-03-07 00   15.0   119.6    974    2    50          
2007-03-07 06   15.4   119.3    964    3    60          
2007-03-07 12   16.1   119.3    956    3    70          
2007-03-07 18   16.8   119.3    952    4    75          
2007-03-08 00   17.7   119.3    930    4    90          
2007-03-08 01   17.9   119.3                            
2007-03-08 02   18.1   119.2                            
2007-03-08 03   18.3   119.2    930    4    90          
2007-03-08 04   18.5   119.2                            
2007-03-08 05   18.7   119.1                            
2007-03-08 06   18.8   119.0    924    5    95          
2007-03-08 07   18.9   119.0                            
2007-03-08 08   19.1   119.1                            
2007-03-08 09   19.3   119.1    910    5    105          
2007-03-08 10   19.5   119.1                            
2007-03-08 11   19.7   119.1                            
2007-03-08 12   19.9   119.1    902    5    110          
2007-03-08 13   20.1   119.0                            
2007-03-08 14   20.2   119.0                            
2007-03-08 15   20.4   119.0    924    5    95          
2007-03-08 16   20.6   118.8                            
2007-03-08 17   20.7   118.8                            
2007-03-08 18   20.9   118.8    950    4    75          
2007-03-08 21   21.3   118.9    958    3    65          
2007-03-09 00   21.6   119.0    966    3    55          
2007-03-09 03   21.9   119.2    974    2    50          
2007-03-09 06   22.1   119.5    978    2    45          
2007-03-09 12   22.6   120.4    984    2    40          
2007-03-09 18   23.1   121.0    986    1    35          
2007-03-10 00   23.6   121.7    988    1    30          
2007-03-10 06   24.0   122.0    986    1    30          
2007-03-10 12   24.4   122.3    986    1    30          
2007-03-10 18   24.9   122.9    988    1    30          
2007-03-11 00   25.2   123.6    990    1    25          
2007-03-11 06   25.6   124.2    992    1    25          
2007-03-11 12   25.9   124.6    994    1    25          
2007-03-11 18   26.2   125.0    996         25          
2007-03-12 00   27.0   124.2   1000         20          
2007-03-12 06   27.4   124.4   1000         20          
Winds are 10-min average.

Tropical cyclone tracks developed by Michael Bath using data from the Bureau of Meteorology and Google Maps.


[Australian Severe Weather index] [Copyright Notice] [Email Contacts] [Search This Site] [Privacy Policy]
Document: tropical_cyclone_george.htm Updated: 29 June 2017